sensor_id;sensor_type;location;lat;lon;timestamp;P1;durP1;ratioP1;P2;durP2;ratioP2
13566;SDS011;6855;48.112;11.298;2022-08-21T00:00:18;1.50;;;1.33;;
13566;SDS011;6855;48.112;11.298;2022-08-21T00:02:47;3.27;;;1.33;;
13566;SDS011;6855;48.112;11.298;2022-08-21T00:05:14;2.33;;;1.13;;
13566;SDS011;6855;48.112;11.298;2022-08-21T00:07:43;1.43;;;1.33;;
13566;SDS011;6855;48.112;11.298;2022-08-21T00:10:10;3.10;;;1.10;;
13566;SDS011;6855;48.112;11.298;2022-08-21T00:12:39;2.60;;;1.30;;
13566;SDS011;6855;48.112;11.298;2022-08-21T00:15:06;1.30;;;1.20;;
13566;SDS011;6855;48.112;11.298;2022-08-21T00:17:35;1.70;;;1.50;;
13566;SDS011;6855;48.112;11.298;2022-08-21T00:20:03;1.20;;;1.10;;
13566;SDS011;6855;48.112;11.298;2022-08-21T00:22:31;1.37;;;1.27;;
13566;SDS011;6855;48.112;11.298;2022-08-21T00:24:59;1.40;;;1.30;;
13566;SDS011;6855;48.112;11.298;2022-08-21T00:27:27;1.80;;;1.17;;
13566;SDS011;6855;48.112;11.298;2022-08-21T00:29:54;1.20;;;1.10;;
13566;SDS011;6855;48.112;11.298;2022-08-21T00:32:22;1.30;;;1.20;;
13566;SDS011;6855;48.112;11.298;2022-08-21T00:34:50;1.37;;;1.27;;
13566;SDS011;6855;48.112;11.298;2022-08-21T00:37:17;1.00;;;0.90;;
13566;SDS011;6855;48.112;11.298;2022-08-21T00:39:44;1.00;;;0.90;;
13566;SDS011;6855;48.112;11.298;2022-08-21T00:42:13;4.47;;;1.30;;
13566;SDS011;6855;48.112;11.298;2022-08-21T00:44:41;0.90;;;0.90;;
13566;SDS011;6855;48.112;11.298;2022-08-21T00:47:08;1.27;;;1.17;;
13566;SDS011;6855;48.112;11.298;2022-08-21T00:49:35;1.40;;;1.10;;
13566;SDS011;6855;48.112;11.298;2022-08-21T00:52:03;1.53;;;1.00;;
13566;SDS011;6855;48.112;11.298;2022-08-21T00:54:32;1.13;;;0.93;;
13566;SDS011;6855;48.112;11.298;2022-08-21T00:57:00;1.40;;;1.30;;
13566;SDS011;6855;48.112;11.298;2022-08-21T00:59:29;3.00;;;1.07;;
13566;SDS011;6855;48.112;11.298;2022-08-21T01:01:59;1.20;;;1.10;;
13566;SDS011;6855;48.112;11.298;2022-08-21T01:04:26;5.03;;;1.20;;
13566;SDS011;6855;48.112;11.298;2022-08-21T01:06:53;1.27;;;1.17;;
13566;SDS011;6855;48.112;11.298;2022-08-21T01:09:20;2.03;;;1.30;;
13566;SDS011;6855;48.112;11.298;2022-08-21T01:11:48;1.73;;;1.00;;
13566;SDS011;6855;48.112;11.298;2022-08-21T01:14:15;1.20;;;1.10;;
13566;SDS011;6855;48.112;11.298;2022-08-21T01:16:46;1.10;;;0.97;;
13566;SDS011;6855;48.112;11.298;2022-08-21T01:19:13;1.20;;;1.10;;
13566;SDS011;6855;48.112;11.298;2022-08-21T01:21:43;1.20;;;1.10;;
13566;SDS011;6855;48.112;11.298;2022-08-21T01:24:11;2.13;;;0.97;;
13566;SDS011;6855;48.112;11.298;2022-08-21T01:26:38;1.00;;;0.97;;
13566;SDS011;6855;48.112;11.298;2022-08-21T01:29:07;2.47;;;1.20;;
13566;SDS011;6855;48.112;11.298;2022-08-21T01:31:36;2.00;;;0.87;;
13566;SDS011;6855;48.112;11.298;2022-08-21T01:34:03;1.80;;;1.43;;
13566;SDS011;6855;48.112;11.298;2022-08-21T01:36:31;2.10;;;1.23;;
13566;SDS011;6855;48.112;11.298;2022-08-21T01:39:00;1.30;;;1.13;;
13566;SDS011;6855;48.112;11.298;2022-08-21T01:41:27;1.53;;;1.20;;
13566;SDS011;6855;48.112;11.298;2022-08-21T01:43:54;1.20;;;1.10;;
13566;SDS011;6855;48.112;11.298;2022-08-21T01:46:21;2.90;;;1.20;;
13566;SDS011;6855;48.112;11.298;2022-08-21T01:48:48;1.40;;;1.10;;
13566;SDS011;6855;48.112;11.298;2022-08-21T01:51:16;2.27;;;1.20;;
13566;SDS011;6855;48.112;11.298;2022-08-21T01:53:43;1.33;;;1.23;;
13566;SDS011;6855;48.112;11.298;2022-08-21T01:56:14;3.17;;;1.40;;
13566;SDS011;6855;48.112;11.298;2022-08-21T01:58:42;1.87;;;1.33;;
13566;SDS011;6855;48.112;11.298;2022-08-21T02:01:10;1.43;;;1.03;;
13566;SDS011;6855;48.112;11.298;2022-08-21T02:03:39;2.40;;;1.40;;
13566;SDS011;6855;48.112;11.298;2022-08-21T02:06:07;1.30;;;1.20;;
13566;SDS011;6855;48.112;11.298;2022-08-21T02:08:34;1.13;;;1.03;;
13566;SDS011;6855;48.112;11.298;2022-08-21T02:11:01;1.53;;;1.43;;
13566;SDS011;6855;48.112;11.298;2022-08-21T02:13:30;1.83;;;1.50;;
13566;SDS011;6855;48.112;11.298;2022-08-21T02:15:57;2.70;;;1.10;;
13566;SDS011;6855;48.112;11.298;2022-08-21T02:18:24;1.30;;;1.20;;
13566;SDS011;6855;48.112;11.298;2022-08-21T02:20:52;1.63;;;1.30;;
13566;SDS011;6855;48.112;11.298;2022-08-21T02:23:19;8.20;;;1.40;;
13566;SDS011;6855;48.112;11.298;2022-08-21T02:25:46;2.10;;;1.27;;
13566;SDS011;6855;48.112;11.298;2022-08-21T02:28:14;1.23;;;1.13;;
13566;SDS011;6855;48.112;11.298;2022-08-21T02:30:44;1.90;;;1.27;;
13566;SDS011;6855;48.112;11.298;2022-08-21T02:33:12;1.63;;;1.20;;
13566;SDS011;6855;48.112;11.298;2022-08-21T02:35:40;5.17;;;1.20;;
13566;SDS011;6855;48.112;11.298;2022-08-21T02:38:08;2.80;;;1.23;;
13566;SDS011;6855;48.112;11.298;2022-08-21T02:40:37;1.17;;;1.07;;
13566;SDS011;6855;48.112;11.298;2022-08-21T02:43:05;1.40;;;1.30;;
13566;SDS011;6855;48.112;11.298;2022-08-21T02:45:33;1.30;;;1.20;;
13566;SDS011;6855;48.112;11.298;2022-08-21T02:48:04;1.37;;;1.27;;
13566;SDS011;6855;48.112;11.298;2022-08-21T02:50:32;1.53;;;1.43;;
13566;SDS011;6855;48.112;11.298;2022-08-21T02:53:00;1.33;;;1.23;;
13566;SDS011;6855;48.112;11.298;2022-08-21T02:55:29;3.37;;;1.47;;
13566;SDS011;6855;48.112;11.298;2022-08-21T02:57:57;1.60;;;1.50;;
13566;SDS011;6855;48.112;11.298;2022-08-21T03:00:26;4.83;;;1.53;;
13566;SDS011;6855;48.112;11.298;2022-08-21T03:02:54;2.70;;;1.30;;
13566;SDS011;6855;48.112;11.298;2022-08-21T03:05:24;1.20;;;1.10;;
13566;SDS011;6855;48.112;11.298;2022-08-21T03:07:51;2.13;;;1.53;;
13566;SDS011;6855;48.112;11.298;2022-08-21T03:10:19;4.40;;;1.50;;
13566;SDS011;6855;48.112;11.298;2022-08-21T03:12:46;2.40;;;1.20;;
13566;SDS011;6855;48.112;11.298;2022-08-21T03:15:14;2.10;;;1.40;;
13566;SDS011;6855;48.112;11.298;2022-08-21T03:17:42;5.97;;;1.37;;
13566;SDS011;6855;48.112;11.298;2022-08-21T03:20:10;5.10;;;1.47;;
13566;SDS011;6855;48.112;11.298;2022-08-21T03:22:38;1.60;;;1.50;;
13566;SDS011;6855;48.112;11.298;2022-08-21T03:25:06;11.13;;;2.30;;
13566;SDS011;6855;48.112;11.298;2022-08-21T03:27:35;2.33;;;1.43;;
13566;SDS011;6855;48.112;11.298;2022-08-21T03:30:03;2.30;;;1.33;;
13566;SDS011;6855;48.112;11.298;2022-08-21T03:32:30;1.40;;;1.30;;
13566;SDS011;6855;48.112;11.298;2022-08-21T03:34:57;1.83;;;1.50;;
13566;SDS011;6855;48.112;11.298;2022-08-21T03:37:25;1.57;;;1.47;;
13566;SDS011;6855;48.112;11.298;2022-08-21T03:39:53;1.20;;;1.10;;
13566;SDS011;6855;48.112;11.298;2022-08-21T03:42:21;1.70;;;1.60;;
13566;SDS011;6855;48.112;11.298;2022-08-21T03:44:48;3.40;;;1.40;;
13566;SDS011;6855;48.112;11.298;2022-08-21T03:47:16;4.20;;;1.40;;
13566;SDS011;6855;48.112;11.298;2022-08-21T03:49:43;3.03;;;1.40;;
13566;SDS011;6855;48.112;11.298;2022-08-21T03:52:10;2.53;;;1.37;;
13566;SDS011;6855;48.112;11.298;2022-08-21T03:54:37;1.40;;;1.30;;
13566;SDS011;6855;48.112;11.298;2022-08-21T03:57:06;2.63;;;1.50;;
13566;SDS011;6855;48.112;11.298;2022-08-21T03:59:34;1.70;;;1.60;;
13566;SDS011;6855;48.112;11.298;2022-08-21T04:02:02;3.80;;;1.37;;
13566;SDS011;6855;48.112;11.298;2022-08-21T04:04:30;3.43;;;1.60;;
13566;SDS011;6855;48.112;11.298;2022-08-21T04:06:57;1.43;;;1.33;;
13566;SDS011;6855;48.112;11.298;2022-08-21T04:09:24;1.67;;;1.40;;
13566;SDS011;6855;48.112;11.298;2022-08-21T04:11:52;1.33;;;1.23;;
13566;SDS011;6855;48.112;11.298;2022-08-21T04:14:20;1.50;;;1.40;;
13566;SDS011;6855;48.112;11.298;2022-08-21T04:16:48;4.30;;;1.30;;
13566;SDS011;6855;48.112;11.298;2022-08-21T04:19:15;2.00;;;1.70;;
13566;SDS011;6855;48.112;11.298;2022-08-21T04:21:42;2.47;;;1.40;;
13566;SDS011;6855;48.112;11.298;2022-08-21T04:24:10;1.50;;;1.40;;
13566;SDS011;6855;48.112;11.298;2022-08-21T04:26:37;4.63;;;1.67;;
13566;SDS011;6855;48.112;11.298;2022-08-21T04:29:05;1.23;;;1.13;;
13566;SDS011;6855;48.112;11.298;2022-08-21T04:31:34;2.57;;;1.50;;
13566;SDS011;6855;48.112;11.298;2022-08-21T04:34:02;1.53;;;1.43;;
13566;SDS011;6855;48.112;11.298;2022-08-21T04:36:29;4.00;;;1.47;;
13566;SDS011;6855;48.112;11.298;2022-08-21T04:38:57;3.17;;;1.50;;
13566;SDS011;6855;48.112;11.298;2022-08-21T04:41:24;1.83;;;1.43;;
13566;SDS011;6855;48.112;11.298;2022-08-21T04:43:51;1.70;;;1.60;;
13566;SDS011;6855;48.112;11.298;2022-08-21T04:46:20;1.70;;;1.50;;
13566;SDS011;6855;48.112;11.298;2022-08-21T04:48:49;1.57;;;1.47;;
13566;SDS011;6855;48.112;11.298;2022-08-21T04:51:17;3.97;;;1.67;;
13566;SDS011;6855;48.112;11.298;2022-08-21T04:53:47;3.70;;;1.60;;
13566;SDS011;6855;48.112;11.298;2022-08-21T04:56:18;2.70;;;1.37;;
13566;SDS011;6855;48.112;11.298;2022-08-21T04:58:47;1.40;;;1.30;;
13566;SDS011;6855;48.112;11.298;2022-08-21T05:01:17;3.40;;;1.43;;
13566;SDS011;6855;48.112;11.298;2022-08-21T05:03:45;1.92;;;1.83;;
13566;SDS011;6855;48.112;11.298;2022-08-21T05:06:16;2.60;;;2.13;;
13566;SDS011;6855;48.112;11.298;2022-08-21T05:08:43;2.80;;;2.30;;
13566;SDS011;6855;48.112;11.298;2022-08-21T05:11:12;2.10;;;1.73;;
13566;SDS011;6855;48.112;11.298;2022-08-21T05:13:39;3.87;;;2.00;;
13566;SDS011;6855;48.112;11.298;2022-08-21T05:16:07;6.77;;;1.53;;
13566;SDS011;6855;48.112;11.298;2022-08-21T05:18:34;2.17;;;1.60;;
13566;SDS011;6855;48.112;11.298;2022-08-21T05:21:02;1.73;;;1.60;;
13566;SDS011;6855;48.112;11.298;2022-08-21T05:23:30;1.80;;;1.33;;
13566;SDS011;6855;48.112;11.298;2022-08-21T05:25:57;5.23;;;1.67;;
13566;SDS011;6855;48.112;11.298;2022-08-21T05:28:25;5.17;;;1.97;;
13566;SDS011;6855;48.112;11.298;2022-08-21T05:30:52;2.03;;;1.40;;
13566;SDS011;6855;48.112;11.298;2022-08-21T05:33:19;2.80;;;1.73;;
13566;SDS011;6855;48.112;11.298;2022-08-21T05:35:49;1.27;;;1.17;;
13566;SDS011;6855;48.112;11.298;2022-08-21T05:38:16;1.30;;;1.20;;
13566;SDS011;6855;48.112;11.298;2022-08-21T05:40:46;3.83;;;1.40;;
13566;SDS011;6855;48.112;11.298;2022-08-21T05:43:13;1.40;;;1.20;;
13566;SDS011;6855;48.112;11.298;2022-08-21T05:45:41;5.90;;;1.90;;
13566;SDS011;6855;48.112;11.298;2022-08-21T05:48:09;3.57;;;1.50;;
13566;SDS011;6855;48.112;11.298;2022-08-21T05:50:38;2.00;;;1.60;;
13566;SDS011;6855;48.112;11.298;2022-08-21T05:53:05;1.73;;;1.20;;
13566;SDS011;6855;48.112;11.298;2022-08-21T05:55:32;3.37;;;1.70;;
13566;SDS011;6855;48.112;11.298;2022-08-21T05:58:01;2.83;;;1.03;;
13566;SDS011;6855;48.112;11.298;2022-08-21T06:00:28;1.77;;;0.90;;
13566;SDS011;6855;48.112;11.298;2022-08-21T06:02:57;2.50;;;1.20;;
13566;SDS011;6855;48.112;11.298;2022-08-21T06:05:25;2.10;;;1.20;;
13566;SDS011;6855;48.112;11.298;2022-08-21T06:07:52;2.20;;;0.80;;
13566;SDS011;6855;48.112;11.298;2022-08-21T06:10:20;1.20;;;1.10;;
13566;SDS011;6855;48.112;11.298;2022-08-21T06:12:51;1.53;;;0.90;;
13566;SDS011;6855;48.112;11.298;2022-08-21T06:15:20;1.17;;;0.80;;
13566;SDS011;6855;48.112;11.298;2022-08-21T06:17:47;5.90;;;1.83;;
13566;SDS011;6855;48.112;11.298;2022-08-21T06:20:15;1.80;;;0.90;;
13566;SDS011;6855;48.112;11.298;2022-08-21T06:22:42;2.10;;;1.10;;
13566;SDS011;6855;48.112;11.298;2022-08-21T06:25:09;1.97;;;1.20;;
13566;SDS011;6855;48.112;11.298;2022-08-21T06:27:37;1.40;;;0.93;;
13566;SDS011;6855;48.112;11.298;2022-08-21T06:30:05;1.73;;;1.03;;
13566;SDS011;6855;48.112;11.298;2022-08-21T06:32:34;2.67;;;1.30;;
13566;SDS011;6855;48.112;11.298;2022-08-21T06:35:01;1.20;;;1.10;;
13566;SDS011;6855;48.112;11.298;2022-08-21T06:37:28;1.43;;;1.20;;
13566;SDS011;6855;48.112;11.298;2022-08-21T06:39:56;1.60;;;0.90;;
13566;SDS011;6855;48.112;11.298;2022-08-21T06:42:23;2.60;;;0.97;;
13566;SDS011;6855;48.112;11.298;2022-08-21T06:44:52;1.83;;;1.10;;
13566;SDS011;6855;48.112;11.298;2022-08-21T06:47:20;2.60;;;1.40;;
13566;SDS011;6855;48.112;11.298;2022-08-21T06:49:48;1.00;;;0.90;;
13566;SDS011;6855;48.112;11.298;2022-08-21T06:52:15;1.10;;;1.00;;
13566;SDS011;6855;48.112;11.298;2022-08-21T06:54:43;1.23;;;0.90;;
13566;SDS011;6855;48.112;11.298;2022-08-21T06:57:10;2.93;;;1.13;;
13566;SDS011;6855;48.112;11.298;2022-08-21T06:59:37;1.10;;;1.00;;
13566;SDS011;6855;48.112;11.298;2022-08-21T07:02:04;2.60;;;1.17;;
13566;SDS011;6855;48.112;11.298;2022-08-21T07:04:32;1.60;;;1.40;;
13566;SDS011;6855;48.112;11.298;2022-08-21T07:07:00;2.23;;;1.10;;
13566;SDS011;6855;48.112;11.298;2022-08-21T07:09:27;3.20;;;1.20;;
13566;SDS011;6855;48.112;11.298;2022-08-21T07:11:55;1.23;;;1.13;;
13566;SDS011;6855;48.112;11.298;2022-08-21T07:14:22;1.60;;;1.50;;
13566;SDS011;6855;48.112;11.298;2022-08-21T07:16:50;1.33;;;1.23;;
13566;SDS011;6855;48.112;11.298;2022-08-21T07:19:17;1.50;;;1.40;;
13566;SDS011;6855;48.112;11.298;2022-08-21T07:21:44;1.53;;;1.30;;
13566;SDS011;6855;48.112;11.298;2022-08-21T07:24:13;1.60;;;1.50;;
13566;SDS011;6855;48.112;11.298;2022-08-21T07:26:41;3.90;;;1.73;;
13566;SDS011;6855;48.112;11.298;2022-08-21T07:29:08;1.90;;;1.70;;
13566;SDS011;6855;48.112;11.298;2022-08-21T07:31:35;1.70;;;1.60;;
13566;SDS011;6855;48.112;11.298;2022-08-21T07:34:03;1.90;;;1.77;;
13566;SDS011;6855;48.112;11.298;2022-08-21T07:36:30;1.97;;;1.87;;
13566;SDS011;6855;48.112;11.298;2022-08-21T07:38:57;3.70;;;1.70;;
13566;SDS011;6855;48.112;11.298;2022-08-21T07:41:27;3.10;;;1.90;;
13566;SDS011;6855;48.112;11.298;2022-08-21T07:43:55;2.77;;;2.40;;
13566;SDS011;6855;48.112;11.298;2022-08-21T07:46:22;2.30;;;2.10;;
13566;SDS011;6855;48.112;11.298;2022-08-21T07:48:50;2.90;;;1.90;;
13566;SDS011;6855;48.112;11.298;2022-08-21T07:51:18;2.00;;;1.90;;
13566;SDS011;6855;48.112;11.298;2022-08-21T07:53:47;2.20;;;1.97;;
13566;SDS011;6855;48.112;11.298;2022-08-21T07:56:14;4.40;;;2.40;;
13566;SDS011;6855;48.112;11.298;2022-08-21T07:58:43;2.30;;;2.10;;
13566;SDS011;6855;48.112;11.298;2022-08-21T08:01:10;2.33;;;2.13;;
13566;SDS011;6855;48.112;11.298;2022-08-21T08:03:38;4.37;;;2.57;;
13566;SDS011;6855;48.112;11.298;2022-08-21T08:06:06;2.30;;;2.10;;
13566;SDS011;6855;48.112;11.298;2022-08-21T08:08:37;2.33;;;2.13;;
13566;SDS011;6855;48.112;11.298;2022-08-21T08:11:05;6.40;;;2.80;;
13566;SDS011;6855;48.112;11.298;2022-08-21T08:13:37;3.63;;;2.90;;
13566;SDS011;6855;48.112;11.298;2022-08-21T08:16:06;2.83;;;2.63;;
13566;SDS011;6855;48.112;11.298;2022-08-21T08:18:33;2.53;;;2.43;;
13566;SDS011;6855;48.112;11.298;2022-08-21T08:21:01;2.90;;;2.57;;
13566;SDS011;6855;48.112;11.298;2022-08-21T08:23:28;2.50;;;2.40;;
13566;SDS011;6855;48.112;11.298;2022-08-21T08:25:55;3.90;;;2.60;;
13566;SDS011;6855;48.112;11.298;2022-08-21T08:28:23;3.10;;;2.90;;
13566;SDS011;6855;48.112;11.298;2022-08-21T08:30:50;3.23;;;2.83;;
13566;SDS011;6855;48.112;11.298;2022-08-21T08:33:18;3.27;;;2.93;;
13566;SDS011;6855;48.112;11.298;2022-08-21T08:35:46;6.57;;;2.80;;
13566;SDS011;6855;48.112;11.298;2022-08-21T08:38:14;4.17;;;3.00;;
13566;SDS011;6855;48.112;11.298;2022-08-21T08:40:45;3.70;;;3.30;;
13566;SDS011;6855;48.112;11.298;2022-08-21T08:43:14;3.57;;;2.97;;
13566;SDS011;6855;48.112;11.298;2022-08-21T08:45:42;4.63;;;3.43;;
13566;SDS011;6855;48.112;11.298;2022-08-21T08:48:12;3.40;;;3.10;;
13566;SDS011;6855;48.112;11.298;2022-08-21T08:50:44;3.43;;;3.20;;
13566;SDS011;6855;48.112;11.298;2022-08-21T08:53:12;2.60;;;2.40;;
13566;SDS011;6855;48.112;11.298;2022-08-21T08:55:43;3.43;;;2.40;;
13566;SDS011;6855;48.112;11.298;2022-08-21T08:58:12;2.97;;;2.77;;
13566;SDS011;6855;48.112;11.298;2022-08-21T09:00:51;3.97;;;3.60;;
13566;SDS011;6855;48.112;11.298;2022-08-21T09:03:18;3.43;;;3.13;;
13566;SDS011;6855;48.112;11.298;2022-08-21T09:05:47;4.10;;;3.60;;
13566;SDS011;6855;48.112;11.298;2022-08-21T09:08:27;3.40;;;2.87;;
13566;SDS011;6855;48.112;11.298;2022-08-21T09:10:57;3.80;;;3.50;;
13566;SDS011;6855;48.112;11.298;2022-08-21T09:13:31;3.50;;;3.30;;
13566;SDS011;6855;48.112;11.298;2022-08-21T09:16:01;4.23;;;3.27;;
13566;SDS011;6855;48.112;11.298;2022-08-21T09:18:33;4.03;;;3.60;;
13566;SDS011;6855;48.112;11.298;2022-08-21T09:21:06;3.40;;;3.10;;
13566;SDS011;6855;48.112;11.298;2022-08-21T09:23:42;3.80;;;3.50;;
13566;SDS011;6855;48.112;11.298;2022-08-21T09:26:12;5.00;;;3.23;;
13566;SDS011;6855;48.112;11.298;2022-08-21T09:28:40;3.17;;;2.87;;
13566;SDS011;6855;48.112;11.298;2022-08-21T09:31:08;4.70;;;2.93;;
13566;SDS011;6855;48.112;11.298;2022-08-21T09:33:37;2.90;;;2.70;;
13566;SDS011;6855;48.112;11.298;2022-08-21T09:36:05;4.63;;;2.80;;
13566;SDS011;6855;48.112;11.298;2022-08-21T09:38:34;3.73;;;2.40;;
13566;SDS011;6855;48.112;11.298;2022-08-21T09:41:03;2.53;;;2.33;;
13566;SDS011;6855;48.112;11.298;2022-08-21T09:43:31;4.50;;;2.60;;
13566;SDS011;6855;48.112;11.298;2022-08-21T09:46:04;3.30;;;2.60;;
13566;SDS011;6855;48.112;11.298;2022-08-21T09:48:38;3.30;;;3.10;;
13566;SDS011;6855;48.112;11.298;2022-08-21T09:51:08;2.93;;;2.73;;
13566;SDS011;6855;48.112;11.298;2022-08-21T09:53:37;3.03;;;2.83;;
13566;SDS011;6855;48.112;11.298;2022-08-21T09:56:16;2.87;;;2.67;;
13566;SDS011;6855;48.112;11.298;2022-08-21T09:59:11;3.03;;;2.83;;
13566;SDS011;6855;48.112;11.298;2022-08-21T10:01:41;3.87;;;3.57;;
13566;SDS011;6855;48.112;11.298;2022-08-21T10:04:09;3.33;;;3.13;;
13566;SDS011;6855;48.112;11.298;2022-08-21T10:06:38;2.87;;;2.67;;
13566;SDS011;6855;48.112;11.298;2022-08-21T10:09:06;5.70;;;3.03;;
13566;SDS011;6855;48.112;11.298;2022-08-21T10:11:34;3.40;;;3.10;;
13566;SDS011;6855;48.112;11.298;2022-08-21T10:14:04;3.03;;;2.83;;
13566;SDS011;6855;48.112;11.298;2022-08-21T10:16:37;4.37;;;3.10;;
13566;SDS011;6855;48.112;11.298;2022-08-21T10:19:11;3.03;;;2.73;;
13566;SDS011;6855;48.112;11.298;2022-08-21T10:21:44;3.03;;;2.50;;
13566;SDS011;6855;48.112;11.298;2022-08-21T10:24:17;2.73;;;2.53;;
13566;SDS011;6855;48.112;11.298;2022-08-21T10:26:49;3.00;;;2.80;;
13566;SDS011;6855;48.112;11.298;2022-08-21T10:29:24;2.80;;;2.60;;
13566;SDS011;6855;48.112;11.298;2022-08-21T10:31:56;3.40;;;3.10;;
13566;SDS011;6855;48.112;11.298;2022-08-21T10:34:33;3.20;;;3.00;;
13566;SDS011;6855;48.112;11.298;2022-08-21T10:37:08;3.40;;;3.10;;
13566;SDS011;6855;48.112;11.298;2022-08-21T10:39:42;4.97;;;3.10;;
13566;SDS011;6855;48.112;11.298;2022-08-21T10:42:21;3.47;;;3.10;;
13566;SDS011;6855;48.112;11.298;2022-08-21T10:44:54;3.50;;;3.20;;
13566;SDS011;6855;48.112;11.298;2022-08-21T10:47:25;3.80;;;3.23;;
13566;SDS011;6855;48.112;11.298;2022-08-21T10:49:56;3.30;;;3.00;;
13566;SDS011;6855;48.112;11.298;2022-08-21T10:52:36;7.90;;;3.10;;
13566;SDS011;6855;48.112;11.298;2022-08-21T10:55:06;2.43;;;2.30;;
13566;SDS011;6855;48.112;11.298;2022-08-21T10:57:37;3.10;;;2.80;;
13566;SDS011;6855;48.112;11.298;2022-08-21T11:00:08;3.00;;;2.70;;
13566;SDS011;6855;48.112;11.298;2022-08-21T11:02:37;3.00;;;2.53;;
13566;SDS011;6855;48.112;11.298;2022-08-21T11:05:08;3.50;;;3.20;;
13566;SDS011;6855;48.112;11.298;2022-08-21T11:07:39;4.57;;;2.80;;
13566;SDS011;6855;48.112;11.298;2022-08-21T11:10:10;2.17;;;2.07;;
13566;SDS011;6855;48.112;11.298;2022-08-21T11:12:41;3.87;;;2.47;;
13566;SDS011;6855;48.112;11.298;2022-08-21T11:15:12;3.20;;;2.90;;
13566;SDS011;6855;48.112;11.298;2022-08-21T11:17:43;3.17;;;2.87;;
13566;SDS011;6855;48.112;11.298;2022-08-21T11:20:12;3.23;;;2.90;;
13566;SDS011;6855;48.112;11.298;2022-08-21T11:22:43;2.40;;;2.30;;
13566;SDS011;6855;48.112;11.298;2022-08-21T11:25:14;2.83;;;2.63;;
13566;SDS011;6855;48.112;11.298;2022-08-21T11:27:42;3.13;;;2.73;;
13566;SDS011;6855;48.112;11.298;2022-08-21T11:30:11;2.77;;;2.23;;
13566;SDS011;6855;48.112;11.298;2022-08-21T11:35:27;2.90;;;2.63;;
13566;SDS011;6855;48.112;11.298;2022-08-21T11:38:00;2.63;;;2.43;;
13566;SDS011;6855;48.112;11.298;2022-08-21T11:40:37;4.33;;;2.40;;
13566;SDS011;6855;48.112;11.298;2022-08-21T11:43:09;4.63;;;2.70;;
13566;SDS011;6855;48.112;11.298;2022-08-21T11:45:39;2.53;;;2.33;;
13566;SDS011;6855;48.112;11.298;2022-08-21T11:48:12;3.03;;;2.43;;
13566;SDS011;6855;48.112;11.298;2022-08-21T11:50:42;2.63;;;2.43;;
13566;SDS011;6855;48.112;11.298;2022-08-21T11:53:14;3.03;;;2.83;;
13566;SDS011;6855;48.112;11.298;2022-08-21T11:55:43;3.67;;;2.47;;
13566;SDS011;6855;48.112;11.298;2022-08-21T11:58:14;3.50;;;2.60;;
13566;SDS011;6855;48.112;11.298;2022-08-21T12:00:43;3.57;;;2.60;;
13566;SDS011;6855;48.112;11.298;2022-08-21T12:03:14;3.73;;;2.60;;
13566;SDS011;6855;48.112;11.298;2022-08-21T12:05:44;8.23;;;2.70;;
13566;SDS011;6855;48.112;11.298;2022-08-21T12:08:28;3.10;;;2.50;;
13566;SDS011;6855;48.112;11.298;2022-08-21T12:11:00;4.03;;;2.70;;
13566;SDS011;6855;48.112;11.298;2022-08-21T12:13:29;5.73;;;2.70;;
13566;SDS011;6855;48.112;11.298;2022-08-21T12:16:04;2.77;;;2.47;;
13566;SDS011;6855;48.112;11.298;2022-08-21T12:18:31;4.33;;;3.47;;
13566;SDS011;6855;48.112;11.298;2022-08-21T12:21:01;2.90;;;2.70;;
13566;SDS011;6855;48.112;11.298;2022-08-21T12:23:31;3.77;;;2.90;;
13566;SDS011;6855;48.112;11.298;2022-08-21T12:26:09;3.10;;;2.90;;
13566;SDS011;6855;48.112;11.298;2022-08-21T12:28:37;3.27;;;2.97;;
13566;SDS011;6855;48.112;11.298;2022-08-21T12:31:16;3.00;;;2.80;;
13566;SDS011;6855;48.112;11.298;2022-08-21T12:33:47;3.30;;;2.93;;
13566;SDS011;6855;48.112;11.298;2022-08-21T12:36:17;3.00;;;2.70;;
13566;SDS011;6855;48.112;11.298;2022-08-21T12:38:48;3.00;;;2.80;;
13566;SDS011;6855;48.112;11.298;2022-08-21T12:41:17;2.60;;;2.40;;
13566;SDS011;6855;48.112;11.298;2022-08-21T12:43:47;4.30;;;2.60;;
13566;SDS011;6855;48.112;11.298;2022-08-21T12:46:16;2.97;;;2.73;;
13566;SDS011;6855;48.112;11.298;2022-08-21T12:48:46;4.13;;;2.73;;
13566;SDS011;6855;48.112;11.298;2022-08-21T12:51:14;2.90;;;2.70;;
13566;SDS011;6855;48.112;11.298;2022-08-21T12:53:43;6.50;;;2.70;;
13566;SDS011;6855;48.112;11.298;2022-08-21T12:56:14;3.00;;;2.80;;
13566;SDS011;6855;48.112;11.298;2022-08-21T12:58:44;7.57;;;2.77;;
13566;SDS011;6855;48.112;11.298;2022-08-21T13:01:13;5.23;;;2.83;;
13566;SDS011;6855;48.112;11.298;2022-08-21T13:03:42;2.83;;;2.63;;
13566;SDS011;6855;48.112;11.298;2022-08-21T13:06:12;3.47;;;3.17;;
13566;SDS011;6855;48.112;11.298;2022-08-21T13:08:41;3.00;;;2.80;;
13566;SDS011;6855;48.112;11.298;2022-08-21T13:11:09;2.80;;;2.60;;
13566;SDS011;6855;48.112;11.298;2022-08-21T13:13:39;2.90;;;2.70;;
13566;SDS011;6855;48.112;11.298;2022-08-21T13:16:07;3.33;;;2.80;;
13566;SDS011;6855;48.112;11.298;2022-08-21T13:18:35;3.23;;;2.93;;
13566;SDS011;6855;48.112;11.298;2022-08-21T13:21:04;2.80;;;2.60;;
13566;SDS011;6855;48.112;11.298;2022-08-21T13:23:32;3.67;;;2.80;;
13566;SDS011;6855;48.112;11.298;2022-08-21T13:25:59;3.47;;;2.63;;
13566;SDS011;6855;48.112;11.298;2022-08-21T13:28:32;3.00;;;2.80;;
13566;SDS011;6855;48.112;11.298;2022-08-21T13:31:01;3.20;;;2.90;;
13566;SDS011;6855;48.112;11.298;2022-08-21T13:33:33;5.50;;;3.33;;
13566;SDS011;6855;48.112;11.298;2022-08-21T13:36:03;3.50;;;3.20;;
13566;SDS011;6855;48.112;11.298;2022-08-21T13:38:32;2.93;;;2.73;;
13566;SDS011;6855;48.112;11.298;2022-08-21T13:41:02;5.40;;;3.03;;
13566;SDS011;6855;48.112;11.298;2022-08-21T13:43:30;6.43;;;2.90;;
13566;SDS011;6855;48.112;11.298;2022-08-21T13:45:58;3.20;;;3.00;;
13566;SDS011;6855;48.112;11.298;2022-08-21T13:48:30;3.07;;;2.77;;
13566;SDS011;6855;48.112;11.298;2022-08-21T13:50:57;3.20;;;3.00;;
13566;SDS011;6855;48.112;11.298;2022-08-21T13:53:28;2.80;;;2.60;;
13566;SDS011;6855;48.112;11.298;2022-08-21T13:55:56;3.27;;;3.07;;
13566;SDS011;6855;48.112;11.298;2022-08-21T13:58:24;4.10;;;3.00;;
13566;SDS011;6855;48.112;11.298;2022-08-21T14:00:52;3.87;;;3.50;;
13566;SDS011;6855;48.112;11.298;2022-08-21T14:03:26;3.10;;;2.90;;
13566;SDS011;6855;48.112;11.298;2022-08-21T14:05:55;4.90;;;3.43;;
13566;SDS011;6855;48.112;11.298;2022-08-21T14:08:23;2.83;;;2.73;;
13566;SDS011;6855;48.112;11.298;2022-08-21T14:10:52;3.37;;;3.10;;
13566;SDS011;6855;48.112;11.298;2022-08-21T14:13:27;3.63;;;3.33;;
13566;SDS011;6855;48.112;11.298;2022-08-21T14:15:56;4.30;;;3.50;;
13566;SDS011;6855;48.112;11.298;2022-08-21T14:18:24;3.23;;;2.97;;
13566;SDS011;6855;48.112;11.298;2022-08-21T14:20:51;3.03;;;2.77;;
13566;SDS011;6855;48.112;11.298;2022-08-21T14:23:26;3.33;;;2.90;;
13566;SDS011;6855;48.112;11.298;2022-08-21T14:25:54;6.13;;;3.67;;
13566;SDS011;6855;48.112;11.298;2022-08-21T14:28:25;3.37;;;3.07;;
13566;SDS011;6855;48.112;11.298;2022-08-21T14:30:53;5.50;;;3.37;;
13566;SDS011;6855;48.112;11.298;2022-08-21T14:33:23;4.20;;;3.40;;
13566;SDS011;6855;48.112;11.298;2022-08-21T14:35:52;3.43;;;3.20;;
13566;SDS011;6855;48.112;11.298;2022-08-21T14:38:20;3.53;;;3.03;;
13566;SDS011;6855;48.112;11.298;2022-08-21T14:40:49;3.00;;;2.70;;
13566;SDS011;6855;48.112;11.298;2022-08-21T14:43:17;3.73;;;2.83;;
13566;SDS011;6855;48.112;11.298;2022-08-21T14:45:45;3.03;;;2.80;;
13566;SDS011;6855;48.112;11.298;2022-08-21T14:48:13;3.83;;;2.93;;
13566;SDS011;6855;48.112;11.298;2022-08-21T14:50:40;3.13;;;2.60;;
13566;SDS011;6855;48.112;11.298;2022-08-21T14:53:07;2.90;;;2.70;;
13566;SDS011;6855;48.112;11.298;2022-08-21T14:55:35;3.17;;;2.97;;
13566;SDS011;6855;48.112;11.298;2022-08-21T14:58:18;5.30;;;3.47;;
13566;SDS011;6855;48.112;11.298;2022-08-21T15:00:48;3.70;;;3.40;;